Aviation Digital Data Service (ADDS)

Output produced by METARs form (1426 UTC 22 April 2019)
found at http://www.aviationweather.gov/metar/data/
 
METAR text: CYYH 220300Z 34013KT 15SM IC DRSN FEW012 FEW090 M26/M31 A2993 RMK SC1AC1 SC TR AC TR OCNL DRSN LAST OB NXT/221500Z SLP142
Conditions at: CYYH (SPENCE BAY AIRPO, NU, CA) observed 0300 UTC 22 April 2019
Temperature: -26.0°C (-15°F)
Dewpoint: -31.0°C (-24°F) [RH = 63%]
Pressure (altimeter): 29.93 inches Hg (1013.6 mb)
[Sea-level pressure: 1014.2 mb]
Winds: from the NNW (340 degrees) at 15 MPH (13 knots; 6.7 m/s)
Visibility: 15 miles (24 km)
Ceiling: at least 12,000 feet AGL
Clouds: few clouds at 1200 feet AGL
few clouds at 9000 feet AGL
Weather: IC DRSN  (ice crystals, low drifting snow)

METAR text: CYYH 220200Z 33018KT 15SM IC DRSN FEW012 FEW030 FEW080 M24/M29 A2989 RMK SC1SC1AC1 SC TR SC TR AC TR SLP126
Conditions at: CYYH (SPENCE BAY AIRPO, NU, CA) observed 0200 UTC 22 April 2019
Temperature: -24.0°C (-11°F)
Dewpoint: -29.0°C (-20°F) [RH = 63%]
Pressure (altimeter): 29.89 inches Hg (1012.3 mb)
[Sea-level pressure: 1012.6 mb]
Winds: from the NNW (330 degrees) at 21 MPH (18 knots; 9.3 m/s)
Visibility: 15 miles (24 km)
Ceiling: at least 12,000 feet AGL
Clouds: few clouds at 1200 feet AGL
few clouds at 3000 feet AGL
few clouds at 8000 feet AGL
Weather: IC DRSN  (ice crystals, low drifting snow)

METAR text: CYYH 220100Z 33016KT 15SM IC DRSN FEW012 FEW030 FEW090 M22/M27 A2988 RMK SC1SC1AC1 SC TR AC TR SLP125
Conditions at: CYYH (SPENCE BAY AIRPO, NU, CA) observed 0100 UTC 22 April 2019
Temperature: -22.0°C (-8°F)
Dewpoint: -27.0°C (-17°F) [RH = 64%]
Pressure (altimeter): 29.88 inches Hg (1011.9 mb)
[Sea-level pressure: 1012.5 mb]
Winds: from the NNW (330 degrees) at 18 MPH (16 knots; 8.2 m/s)
Visibility: 15 miles (24 km)
Ceiling: at least 12,000 feet AGL
Clouds: few clouds at 1200 feet AGL
few clouds at 3000 feet AGL
few clouds at 9000 feet AGL
Weather: IC DRSN  (ice crystals, low drifting snow)

METAR text: CYYH 220000Z 33015KT 15SM IC DRSN FEW012 FEW030 FEW080 M21/M25 A2987 RMK SC1SC1AC1 AC TR SLP120
Conditions at: CYYH (SPENCE BAY AIRPO, NU, CA) observed 0000 UTC 22 April 2019
Temperature: -21.0°C (-6°F)
Dewpoint: -25.0°C (-13°F) [RH = 70%]
Pressure (altimeter): 29.87 inches Hg (1011.6 mb)
[Sea-level pressure: 1012.0 mb]
Winds: from the NNW (330 degrees) at 17 MPH (15 knots; 7.7 m/s)
Visibility: 15 miles (24 km)
Ceiling: at least 12,000 feet AGL
Clouds: few clouds at 1200 feet AGL
few clouds at 3000 feet AGL
few clouds at 8000 feet AGL
Weather: IC DRSN  (ice crystals, low drifting snow)

METAR text: CYYH 212300Z 31016KT 9SM -SN DRSN FEW009 SCT012 BKN020 BKN035 M19/M24 A2986 RMK ST1SC2SC2SC2 SLP119
Conditions at: CYYH (SPENCE BAY AIRPO, NU, CA) observed 2300 UTC 21 April 2019
Temperature: -19.0°C (-2°F)
Dewpoint: -24.0°C (-11°F) [RH = 65%]
Pressure (altimeter): 29.86 inches Hg (1011.3 mb)
[Sea-level pressure: 1011.9 mb]
Winds: from the NW (310 degrees) at 18 MPH (16 knots; 8.2 m/s)
Visibility: 9 miles (14 km)
Ceiling: 2000 feet AGL
Clouds: few clouds at 900 feet AGL
scattered clouds at 1200 feet AGL
broken clouds at 2000 feet AGL
broken clouds at 3500 feet AGL
Weather: -SN DRSN  (light snow, low drifting snow)

METAR text: CYYH 212200Z 31010KT 8SM -SN DRSN FEW012 SCT016 SCT040 BKN060 BKN080 M19/M23 A2988 RMK SC1SC2SC1SC2AC1 SUN DIMLY VISIBLE OCNL DRSN SLP123
Conditions at: CYYH (SPENCE BAY AIRPO, NU, CA) observed 2200 UTC 21 April 2019
Temperature: -19.0°C (-2°F)
Dewpoint: -23.0°C (-9°F) [RH = 71%]
Pressure (altimeter): 29.88 inches Hg (1011.9 mb)
[Sea-level pressure: 1012.3 mb]
Winds: from the NW (310 degrees) at 12 MPH (10 knots; 5.1 m/s)
Visibility: 8 miles (13 km)
Ceiling: 6000 feet AGL
Clouds: few clouds at 1200 feet AGL
scattered clouds at 1600 feet AGL
scattered clouds at 4000 feet AGL
broken clouds at 6000 feet AGL
Weather: -SN DRSN  (light snow, low drifting snow)

METAR text: CYYH 212125Z 29016KT 5SM -SN DRSN FEW009 SCT012 BKN025 BKN040 BKN080 M19/M23 A2987 RMK SN2ST1SC1SC2SC1AC1 ST TR VIS SE 2 OCNL DRSN SLP120
Conditions at: CYYH (SPENCE BAY AIRPO, NU, CA) observed 2125 UTC 21 April 2019
Temperature: -19.0°C (-2°F)
Dewpoint: -23.0°C (-9°F) [RH = 71%]
Pressure (altimeter): 29.87 inches Hg (1011.6 mb)
[Sea-level pressure: 1012.0 mb]
Winds: from the WNW (290 degrees) at 18 MPH (16 knots; 8.2 m/s)
Visibility: 5 miles ( 8 km)
Ceiling: 2500 feet AGL
Clouds: few clouds at 900 feet AGL
scattered clouds at 1200 feet AGL
broken clouds at 2500 feet AGL
broken clouds at 4000 feet AGL
Weather: -SN DRSN  (light snow, low drifting snow)

METAR text: CYYH 212100Z 28015KT 5SM -SHSN DRSN SCT008 BKN012 BKN020 OVC040 M19/M23 A2988 RMK SN2ST1SC2SC1SC2 VIS E-SE 3 SLP123
Conditions at: CYYH (SPENCE BAY AIRPO, NU, CA) observed 2100 UTC 21 April 2019
Temperature: -19.0°C (-2°F)
Dewpoint: -23.0°C (-9°F) [RH = 71%]
Pressure (altimeter): 29.88 inches Hg (1011.9 mb)
[Sea-level pressure: 1012.3 mb]
Winds: from the W (280 degrees) at 17 MPH (15 knots; 7.7 m/s)
Visibility: 5 miles ( 8 km)
Ceiling: 1200 feet AGL
Clouds: scattered clouds at 800 feet AGL
broken clouds at 1200 feet AGL
broken clouds at 2000 feet AGL
overcast cloud deck at 4000 feet AGL
Weather: -SHSN DRSN  (light snow showers, low drifting snow)

METAR text: CYYH 212000Z 25013KT 1SM -SHSN DRSN SCT009 BKN012 BKN020 OVC030 M19/M22 A2989 RMK SN3ST1SC2SC1SC1 VIS W 2 VIS ABV GRN GRTR SUN DIMLY VISIBLE SLP126
Conditions at: CYYH (SPENCE BAY AIRPO, NU, CA) observed 2000 UTC 21 April 2019
Temperature: -19.0°C (-2°F)
Dewpoint: -22.0°C (-8°F) [RH = 77%]
Pressure (altimeter): 29.89 inches Hg (1012.3 mb)
[Sea-level pressure: 1012.6 mb]
Winds: from the WSW (250 degrees) at 15 MPH (13 knots; 6.7 m/s)
Visibility: 1.00 miles (1.61 km)
Ceiling: 1200 feet AGL
Clouds: scattered clouds at 900 feet AGL
broken clouds at 1200 feet AGL
broken clouds at 2000 feet AGL
overcast cloud deck at 3000 feet AGL
Weather: -SHSN DRSN  (light snow showers, low drifting snow)

METAR text: CYYH 211946Z 25013G19KT 1SM -SHSN DRSN SCT009 BKN012 BKN020 OVC030 M19/M23 A2989 RMK SN3ST1SC2SC1SC1 VIS W 2 VIS ABV GRN GRTR SLP127
Conditions at: CYYH (SPENCE BAY AIRPO, NU, CA) observed 1946 UTC 21 April 2019
Temperature: -19.0°C (-2°F)
Dewpoint: -23.0°C (-9°F) [RH = 71%]
Pressure (altimeter): 29.89 inches Hg (1012.3 mb)
[Sea-level pressure: 1012.7 mb]
Winds: from the WSW (250 degrees) at 15 MPH (13 knots; 6.7 m/s)
gusting to 22 MPH (19 knots; 9.8 m/s)
Visibility: 1.00 miles (1.61 km)
Ceiling: 1200 feet AGL
Clouds: scattered clouds at 900 feet AGL
broken clouds at 1200 feet AGL
broken clouds at 2000 feet AGL
overcast cloud deck at 3000 feet AGL
Weather: -SHSN DRSN  (light snow showers, low drifting snow)

METAR text: CYYH 211900Z 24013KT 4SM -SN DRSN SCT010 SCT015 BKN030 OVC045 M20/M24 A2989 RMK SN2ST1SC1SC3SC1 VIS E-SE 2 SUN DIMLY VISIBLE OCNL DRSN SLP129
Conditions at: CYYH (SPENCE BAY AIRPO, NU, CA) observed 1900 UTC 21 April 2019
Temperature: -20.0°C (-4°F)
Dewpoint: -24.0°C (-11°F) [RH = 70%]
Pressure (altimeter): 29.89 inches Hg (1012.3 mb)
[Sea-level pressure: 1012.9 mb]
Winds: from the WSW (240 degrees) at 15 MPH (13 knots; 6.7 m/s)
Visibility: 4 miles ( 6 km)
Ceiling: 3000 feet AGL
Clouds: scattered clouds at 1000 feet AGL
scattered clouds at 1500 feet AGL
broken clouds at 3000 feet AGL
overcast cloud deck at 4500 feet AGL
Weather: -SN DRSN  (light snow, low drifting snow)

METAR text: CYYH 211800Z 21012KT 4SM -SN DRSN SCT010 BKN018 BKN030 OVC050 M22/M26 A2992 RMK SN2ST1SC3SC1SC1 FG DSIPTD VIS W-NE 8 SUN DIMLY VISIBLE SLP137
Conditions at: CYYH (SPENCE BAY AIRPO, NU, CA) observed 1800 UTC 21 April 2019
Temperature: -22.0°C (-8°F)
Dewpoint: -26.0°C (-15°F) [RH = 70%]
Pressure (altimeter): 29.92 inches Hg (1013.3 mb)
[Sea-level pressure: 1013.7 mb]
Winds: from the SSW (210 degrees) at 14 MPH (12 knots; 6.2 m/s)
Visibility: 4 miles ( 6 km)
Ceiling: 1800 feet AGL
Clouds: scattered clouds at 1000 feet AGL
broken clouds at 1800 feet AGL
broken clouds at 3000 feet AGL
overcast cloud deck at 5000 feet AGL
Weather: -SN DRSN  (light snow, low drifting snow)

METAR text: CYYH 211700Z 24014G19KT 1 1/2SM -SN BR DRSN SCT010 BKN020 OVC030 M23/M27 A2994 RMK FG3ST1SC2SC2 VIS W 3 SLP144
Conditions at: CYYH (SPENCE BAY AIRPO, NU, CA) observed 1700 UTC 21 April 2019
Temperature: -23.0°C (-9°F)
Dewpoint: -27.0°C (-17°F) [RH = 70%]
Pressure (altimeter): 29.94 inches Hg (1014.0 mb)
[Sea-level pressure: 1014.4 mb]
Winds: from the WSW (240 degrees) at 16 MPH (14 knots; 7.2 m/s)
gusting to 22 MPH (19 knots; 9.8 m/s)
Visibility: 1.50 miles (2.41 km)
Ceiling: 2000 feet AGL
Clouds: scattered clouds at 1000 feet AGL
broken clouds at 2000 feet AGL
overcast cloud deck at 3000 feet AGL
Weather: -SN BR DRSN  (light snow, mist, low drifting snow)

METAR text: CYYH 211600Z 23012KT 1 1/4SM -SN BR SCT010 BKN015 BKN020 OVC030 M23/M27 A2995 RMK FG2ST2SC1SC2SC1 SUN DIMLY VISIBLE SLP148
Conditions at: CYYH (SPENCE BAY AIRPO, NU, CA) observed 1600 UTC 21 April 2019
Temperature: -23.0°C (-9°F)
Dewpoint: -27.0°C (-17°F) [RH = 70%]
Pressure (altimeter): 29.95 inches Hg (1014.3 mb)
[Sea-level pressure: 1014.8 mb]
Winds: from the SW (230 degrees) at 14 MPH (12 knots; 6.2 m/s)
Visibility: 1.25 miles (2.01 km)
Ceiling: 1500 feet AGL
Clouds: scattered clouds at 1000 feet AGL
broken clouds at 1500 feet AGL
broken clouds at 2000 feet AGL
overcast cloud deck at 3000 feet AGL
Weather: -SN BR  (light snow, mist)

METAR text: CYYH 210300Z 31010KT 15SM IC FEW030 FEW090 M26/M31 A3006 RMK SC1AC1 SC TR AC TR FROIN LAST OB NXT/211500Z SLP185
Conditions at: CYYH (SPENCE BAY AIRPO, NU, CA) observed 0300 UTC 21 April 2019
Temperature: -26.0°C (-15°F)
Dewpoint: -31.0°C (-24°F) [RH = 63%]
Pressure (altimeter): 30.06 inches Hg (1018.0 mb)
[Sea-level pressure: 1018.5 mb]
Winds: from the NW (310 degrees) at 12 MPH (10 knots; 5.1 m/s)
Visibility: 15 miles (24 km)
Ceiling: at least 12,000 feet AGL
Clouds: few clouds at 3000 feet AGL
few clouds at 9000 feet AGL
Weather: IC  (ice crystals)